sensor_id;sensor_type;location;lat;lon;timestamp;pressure;altitude;pressure_sealevel;temperature;humidity
8140;BME280;4111;50.972;7.072;2023-01-29T00:01:40;102606.84;;;-1.66;87.69
8140;BME280;4111;50.972;7.072;2023-01-29T00:04:06;102601.50;;;-1.66;87.43
8140;BME280;4111;50.972;7.072;2023-01-29T00:06:33;102596.06;;;-1.76;87.29
8140;BME280;4111;50.972;7.072;2023-01-29T00:09:00;102605.41;;;-1.82;87.33
8140;BME280;4111;50.972;7.072;2023-01-29T00:11:27;102605.50;;;-1.83;87.44
8140;BME280;4111;50.972;7.072;2023-01-29T00:13:53;102599.72;;;-1.77;87.42
8140;BME280;4111;50.972;7.072;2023-01-29T00:16:20;102593.75;;;-1.81;87.15
8140;BME280;4111;50.972;7.072;2023-01-29T00:18:46;102592.53;;;-1.88;87.01
8140;BME280;4111;50.972;7.072;2023-01-29T00:21:15;102585.06;;;-1.83;87.22
8140;BME280;4111;50.972;7.072;2023-01-29T00:23:42;102592.19;;;-1.94;87.25
8140;BME280;4111;50.972;7.072;2023-01-29T00:26:09;102582.84;;;-2.00;87.54
8140;BME280;4111;50.972;7.072;2023-01-29T00:28:36;102577.28;;;-1.97;87.88
8140;BME280;4111;50.972;7.072;2023-01-29T00:31:12;102570.25;;;-1.98;87.13
8140;BME280;4111;50.972;7.072;2023-01-29T00:33:39;102582.13;;;-1.91;87.30
8140;BME280;4111;50.972;7.072;2023-01-29T00:36:09;102582.13;;;-1.91;87.30
8140;BME280;4111;50.972;7.072;2023-01-29T00:38:36;102585.88;;;-2.05;87.32
8140;BME280;4111;50.972;7.072;2023-01-29T00:41:11;102579.69;;;-1.94;87.23
8140;BME280;4111;50.972;7.072;2023-01-29T00:43:57;102570.75;;;-2.04;87.81
8140;BME280;4111;50.972;7.072;2023-01-29T00:46:42;102566.03;;;-2.01;87.77
8140;BME280;4111;50.972;7.072;2023-01-29T00:49:09;102556.84;;;-1.96;87.49
8140;BME280;4111;50.972;7.072;2023-01-29T00:51:36;102551.63;;;-1.98;87.54
8140;BME280;4111;50.972;7.072;2023-01-29T00:54:04;102554.75;;;-2.04;87.40
8140;BME280;4111;50.972;7.072;2023-01-29T00:56:36;102553.94;;;-2.05;87.27
8140;BME280;4111;50.972;7.072;2023-01-29T00:59:03;102559.88;;;-2.01;87.23
8140;BME280;4111;50.972;7.072;2023-01-29T01:01:29;102556.84;;;-1.96;87.70
8140;BME280;4111;50.972;7.072;2023-01-29T01:04:15;102561.31;;;-1.97;87.12
8140;BME280;4111;50.972;7.072;2023-01-29T01:06:42;102557.78;;;-2.09;87.20
8140;BME280;4111;50.972;7.072;2023-01-29T01:09:09;102557.91;;;-2.10;87.36
8140;BME280;4111;50.972;7.072;2023-01-29T01:11:54;102555.88;;;-2.07;87.54
8140;BME280;4111;50.972;7.072;2023-01-29T01:14:21;102549.91;;;-2.10;87.69
8140;BME280;4111;50.972;7.072;2023-01-29T01:16:48;102560.19;;;-2.06;88.23
8140;BME280;4111;50.972;7.072;2023-01-29T01:19:15;102563.22;;;-2.10;87.55
8140;BME280;4111;50.972;7.072;2023-01-29T01:21:42;102562.13;;;-2.08;88.04
8140;BME280;4111;50.972;7.072;2023-01-29T01:24:13;102558.00;;;-2.12;88.13
8140;BME280;4111;50.972;7.072;2023-01-29T01:26:40;102562.72;;;-2.15;88.26
8140;BME280;4111;50.972;7.072;2023-01-29T01:29:07;102554.25;;;-2.21;87.87
8140;BME280;4111;50.972;7.072;2023-01-29T01:31:33;102563.72;;;-2.16;88.13
8140;BME280;4111;50.972;7.072;2023-01-29T01:34:00;102560.56;;;-2.10;87.90
8140;BME280;4111;50.972;7.072;2023-01-29T01:36:26;102563.13;;;-2.09;87.73
8140;BME280;4111;50.972;7.072;2023-01-29T01:38:53;102567.09;;;-2.14;87.66
8140;BME280;4111;50.972;7.072;2023-01-29T01:41:20;102572.84;;;-2.32;87.80
8140;BME280;4111;50.972;7.072;2023-01-29T01:43:53;102574.56;;;-2.31;87.85
8140;BME280;4111;50.972;7.072;2023-01-29T01:46:21;102580.63;;;-2.17;87.60
8140;BME280;4111;50.972;7.072;2023-01-29T01:48:58;102564.19;;;-2.11;88.05
8140;BME280;4111;50.972;7.072;2023-01-29T01:51:28;102572.84;;;-2.32;88.19
8140;BME280;4111;50.972;7.072;2023-01-29T01:54:07;102568.31;;;-2.18;88.04
8140;BME280;4111;50.972;7.072;2023-01-29T01:56:41;102555.84;;;-2.18;88.25
8140;BME280;4111;50.972;7.072;2023-01-29T01:59:15;102557.50;;;-2.28;87.62
8140;BME280;4111;50.972;7.072;2023-01-29T02:01:46;102546.50;;;-2.35;88.17
8140;BME280;4111;50.972;7.072;2023-01-29T02:04:20;102543.84;;;-2.35;88.04
8140;BME280;4111;50.972;7.072;2023-01-29T02:07:10;102539.25;;;-2.33;87.54
8140;BME280;4111;50.972;7.072;2023-01-29T02:10:04;102524.22;;;-2.34;88.01
8140;BME280;4111;50.972;7.072;2023-01-29T02:12:35;102526.16;;;-2.36;87.59
8140;BME280;4111;50.972;7.072;2023-01-29T02:15:02;102524.22;;;-2.34;87.88
8140;BME280;4111;50.972;7.072;2023-01-29T02:17:30;102537.59;;;-2.58;87.88
8140;BME280;4111;50.972;7.072;2023-01-29T02:20:30;102536.91;;;-2.49;88.60
8140;BME280;4111;50.972;7.072;2023-01-29T02:29:11;102544.56;;;-2.33;87.87
8140;BME280;4111;50.972;7.072;2023-01-29T02:34:42;102558.44;;;-2.41;88.46
8140;BME280;4111;50.972;7.072;2023-01-29T02:37:40;102547.81;;;-2.41;88.57
8140;BME280;4111;50.972;7.072;2023-01-29T02:40:45;102552.31;;;-2.30;88.52
8140;BME280;4111;50.972;7.072;2023-01-29T02:49:00;102560.69;;;-2.58;88.19
8140;BME280;4111;50.972;7.072;2023-01-29T02:52:22;102565.13;;;-2.59;88.61
8140;BME280;4111;50.972;7.072;2023-01-29T02:54:32;102572.34;;;-2.48;88.58
8140;BME280;4111;50.972;7.072;2023-01-29T02:57:18;102571.94;;;-2.55;88.79
8140;BME280;4111;50.972;7.072;2023-01-29T02:59:54;102583.19;;;-2.51;88.20
8140;BME280;4111;50.972;7.072;2023-01-29T03:02:31;102576.66;;;-2.58;88.27
8140;BME280;4111;50.972;7.072;2023-01-29T03:05:02;102573.47;;;-2.64;88.18
8140;BME280;4111;50.972;7.072;2023-01-29T03:07:37;102580.72;;;-2.66;88.53
8140;BME280;4111;50.972;7.072;2023-01-29T03:10:25;102585.94;;;-2.64;88.67
8140;BME280;4111;50.972;7.072;2023-01-29T03:12:57;102591.41;;;-2.54;88.69
8140;BME280;4111;50.972;7.072;2023-01-29T03:15:34;102598.94;;;-2.48;88.58
8140;BME280;4111;50.972;7.072;2023-01-29T03:18:08;102596.59;;;-2.53;88.61
8140;BME280;4111;50.972;7.072;2023-01-29T03:20:43;102594.75;;;-2.64;88.01
8140;BME280;4111;50.972;7.072;2023-01-29T03:23:18;102577.09;;;-2.65;88.86
8140;BME280;4111;50.972;7.072;2023-01-29T03:25:52;102574.88;;;-2.71;88.96
8140;BME280;4111;50.972;7.072;2023-01-29T03:28:41;102579.47;;;-2.73;88.48
8140;BME280;4111;50.972;7.072;2023-01-29T03:31:28;102572.69;;;-2.77;88.37
8140;BME280;4111;50.972;7.072;2023-01-29T03:34:21;102572.47;;;-2.74;88.26
8140;BME280;4111;50.972;7.072;2023-01-29T03:37:07;102567.00;;;-2.84;88.40
8140;BME280;4111;50.972;7.072;2023-01-29T03:39:35;102550.69;;;-2.79;88.65
8140;BME280;4111;50.972;7.072;2023-01-29T03:45:13;102554.59;;;-2.72;88.64
8140;BME280;4111;50.972;7.072;2023-01-29T04:01:03;102569.00;;;-3.11;89.06
8140;BME280;4111;50.972;7.072;2023-01-29T04:03:36;102580.31;;;-2.96;89.21
8140;BME280;4111;50.972;7.072;2023-01-29T04:06:21;102580.31;;;-2.96;89.69
8140;BME280;4111;50.972;7.072;2023-01-29T04:08:58;102576.81;;;-2.97;89.60
8140;BME280;4111;50.972;7.072;2023-01-29T04:11:28;102573.59;;;-2.89;89.40
8140;BME280;4111;50.972;7.072;2023-01-29T04:13:57;102571.09;;;-2.80;89.39
8140;BME280;4111;50.972;7.072;2023-01-29T04:16:30;102568.56;;;-2.81;89.74
8140;BME280;4111;50.972;7.072;2023-01-29T04:18:59;102566.16;;;-2.84;89.04
8140;BME280;4111;50.972;7.072;2023-01-29T04:21:26;102556.97;;;-2.80;89.51
8140;BME280;4111;50.972;7.072;2023-01-29T04:23:53;102553.34;;;-2.79;89.36
8140;BME280;4111;50.972;7.072;2023-01-29T04:31:53;102537.19;;;-2.76;89.07
8140;BME280;4111;50.972;7.072;2023-01-29T04:34:28;102535.47;;;-2.77;88.58
8140;BME280;4111;50.972;7.072;2023-01-29T04:37:32;102527.16;;;-2.72;88.70
8140;BME280;4111;50.972;7.072;2023-01-29T04:42:48;102531.84;;;-2.76;88.59
8140;BME280;4111;50.972;7.072;2023-01-29T04:45:38;102522.06;;;-2.75;88.65
8140;BME280;4111;50.972;7.072;2023-01-29T04:48:21;102527.47;;;-2.77;88.59
8140;BME280;4111;50.972;7.072;2023-01-29T04:51:11;102528.59;;;-3.04;88.74
8140;BME280;4111;50.972;7.072;2023-01-29T04:53:57;102532.66;;;-3.11;88.79
8140;BME280;4111;50.972;7.072;2023-01-29T04:56:35;102537.75;;;-3.08;89.51
8140;BME280;4111;50.972;7.072;2023-01-29T04:59:11;102528.50;;;-2.91;89.24
8140;BME280;4111;50.972;7.072;2023-01-29T05:01:39;102522.47;;;-2.93;89.05
8140;BME280;4111;50.972;7.072;2023-01-29T05:04:09;102515.78;;;-2.99;89.10
8140;BME280;4111;50.972;7.072;2023-01-29T05:06:39;102512.91;;;-2.95;89.55
8140;BME280;4111;50.972;7.072;2023-01-29T05:09:07;102505.56;;;-2.92;89.56
8140;BME280;4111;50.972;7.072;2023-01-29T05:11:35;102507.88;;;-2.87;89.37
8140;BME280;4111;50.972;7.072;2023-01-29T05:14:04;102509.81;;;-2.89;88.85
8140;BME280;4111;50.972;7.072;2023-01-29T05:16:42;102504.69;;;-2.92;88.35
8140;BME280;4111;50.972;7.072;2023-01-29T05:19:11;102504.09;;;-2.96;88.71
8140;BME280;4111;50.972;7.072;2023-01-29T05:21:41;102510.47;;;-2.99;88.60
8140;BME280;4111;50.972;7.072;2023-01-29T05:24:26;102506.41;;;-2.91;88.55
8140;BME280;4111;50.972;7.072;2023-01-29T05:26:53;102510.25;;;-2.95;89.05
8140;BME280;4111;50.972;7.072;2023-01-29T05:29:43;102516.81;;;-2.88;88.82
8140;BME280;4111;50.972;7.072;2023-01-29T05:32:11;102504.69;;;-2.92;89.12
8140;BME280;4111;50.972;7.072;2023-01-29T05:34:37;102495.56;;;-2.88;89.40
8140;BME280;4111;50.972;7.072;2023-01-29T05:37:04;102496.72;;;-2.92;89.40
8140;BME280;4111;50.972;7.072;2023-01-29T05:39:30;102500.88;;;-2.88;89.08
8140;BME280;4111;50.972;7.072;2023-01-29T05:41:57;102498.22;;;-2.88;88.69
8140;BME280;4111;50.972;7.072;2023-01-29T05:44:24;102487.84;;;-2.80;89.14
8140;BME280;4111;50.972;7.072;2023-01-29T05:46:50;102494.84;;;-2.79;88.91
8140;BME280;4111;50.972;7.072;2023-01-29T05:49:17;102498.06;;;-2.87;88.59
8140;BME280;4111;50.972;7.072;2023-01-29T05:51:45;102491.66;;;-2.95;88.85
8140;BME280;4111;50.972;7.072;2023-01-29T05:54:12;102486.81;;;-2.90;89.18
8140;BME280;4111;50.972;7.072;2023-01-29T05:56:39;102488.81;;;-2.81;89.37
8140;BME280;4111;50.972;7.072;2023-01-29T05:59:06;102500.16;;;-2.79;89.32
8140;BME280;4111;50.972;7.072;2023-01-29T06:01:32;102492.91;;;-2.77;89.48
8140;BME280;4111;50.972;7.072;2023-01-29T06:03:59;102499.22;;;-2.78;89.50
8140;BME280;4111;50.972;7.072;2023-01-29T06:06:25;102504.66;;;-2.80;89.18
8140;BME280;4111;50.972;7.072;2023-01-29T06:08:51;102512.03;;;-2.72;89.65
8140;BME280;4111;50.972;7.072;2023-01-29T06:11:18;102513.72;;;-2.82;89.44
8140;BME280;4111;50.972;7.072;2023-01-29T06:13:45;102506.47;;;-2.80;89.49
8140;BME280;4111;50.972;7.072;2023-01-29T06:16:13;102507.53;;;-2.83;89.34
8140;BME280;4111;50.972;7.072;2023-01-29T06:18:40;102506.22;;;-2.77;89.63
8140;BME280;4111;50.972;7.072;2023-01-29T06:21:09;102506.84;;;-2.73;89.71
8140;BME280;4111;50.972;7.072;2023-01-29T06:23:36;102501.16;;;-2.80;89.10
8140;BME280;4111;50.972;7.072;2023-01-29T06:26:06;102500.16;;;-2.79;88.87
8140;BME280;4111;50.972;7.072;2023-01-29T06:28:33;102496.03;;;-2.83;89.21
8140;BME280;4111;50.972;7.072;2023-01-29T06:31:04;102496.50;;;-2.89;89.47
8140;BME280;4111;50.972;7.072;2023-01-29T06:33:51;102500.25;;;-2.92;89.58
8140;BME280;4111;50.972;7.072;2023-01-29T06:36:18;102516.38;;;-2.82;90.06
8140;BME280;4111;50.972;7.072;2023-01-29T06:38:44;102514.44;;;-2.80;89.31
8140;BME280;4111;50.972;7.072;2023-01-29T06:41:15;102527.22;;;-2.85;89.77
8140;BME280;4111;50.972;7.072;2023-01-29T06:43:43;102532.53;;;-2.85;89.95
8140;BME280;4111;50.972;7.072;2023-01-29T06:46:10;102542.50;;;-2.76;90.13
8140;BME280;4111;50.972;7.072;2023-01-29T06:48:36;102548.75;;;-2.77;90.04
8140;BME280;4111;50.972;7.072;2023-01-29T06:51:07;102562.75;;;-2.86;89.80
8140;BME280;4111;50.972;7.072;2023-01-29T06:53:35;102566.75;;;-2.81;90.36
8140;BME280;4111;50.972;7.072;2023-01-29T06:56:03;102565.22;;;-2.72;90.30
8140;BME280;4111;50.972;7.072;2023-01-29T06:58:30;102561.59;;;-2.71;90.80
8140;BME280;4111;50.972;7.072;2023-01-29T07:01:04;102563.47;;;-2.60;90.62
8140;BME280;4111;50.972;7.072;2023-01-29T07:03:31;102555.13;;;-2.55;91.05
8140;BME280;4111;50.972;7.072;2023-01-29T07:05:57;102552.72;;;-2.58;90.78
8140;BME280;4111;50.972;7.072;2023-01-29T07:08:24;102549.19;;;-2.59;90.94
8140;BME280;4111;50.972;7.072;2023-01-29T07:10:50;102546.31;;;-2.56;90.85
8140;BME280;4111;50.972;7.072;2023-01-29T07:13:17;102545.56;;;-2.58;90.29
8140;BME280;4111;50.972;7.072;2023-01-29T07:15:43;102544.88;;;-2.49;90.45
8140;BME280;4111;50.972;7.072;2023-01-29T07:18:10;102545.38;;;-2.44;90.42
8140;BME280;4111;50.972;7.072;2023-01-29T07:20:41;102543.84;;;-2.35;90.59
8140;BME280;4111;50.972;7.072;2023-01-29T07:23:10;102543.84;;;-2.35;90.40
8140;BME280;4111;50.972;7.072;2023-01-29T07:25:38;102538.78;;;-2.27;90.43
8140;BME280;4111;50.972;7.072;2023-01-29T07:28:05;102540.72;;;-2.29;90.28
8140;BME280;4111;50.972;7.072;2023-01-29T07:30:32;102550.25;;;-2.26;90.77
8140;BME280;4111;50.972;7.072;2023-01-29T07:33:04;102536.59;;;-2.22;91.10
8140;BME280;4111;50.972;7.072;2023-01-29T07:35:40;102552.34;;;-2.07;91.14
8140;BME280;4111;50.972;7.072;2023-01-29T07:38:09;102548.25;;;-2.00;91.15
8140;BME280;4111;50.972;7.072;2023-01-29T07:40:36;102541.34;;;-2.03;91.47
8140;BME280;4111;50.972;7.072;2023-01-29T07:43:05;102538.78;;;-2.04;91.61
8140;BME280;4111;50.972;7.072;2023-01-29T07:45:33;102535.44;;;-1.95;91.60
8140;BME280;4111;50.972;7.072;2023-01-29T07:48:00;102535.56;;;-1.85;91.57
8140;BME280;4111;50.972;7.072;2023-01-29T07:50:27;102545.84;;;-1.81;91.83
8140;BME280;4111;50.972;7.072;2023-01-29T07:52:53;102556.00;;;-1.74;91.57
8140;BME280;4111;50.972;7.072;2023-01-29T07:55:20;102553.09;;;-1.71;91.16
8140;BME280;4111;50.972;7.072;2023-01-29T07:57:46;102548.63;;;-1.60;91.40
8140;BME280;4111;50.972;7.072;2023-01-29T08:00:13;102523.94;;;-1.62;90.83
8140;BME280;4111;50.972;7.072;2023-01-29T08:02:40;102529.13;;;-1.71;91.45
8140;BME280;4111;50.972;7.072;2023-01-29T08:05:07;102527.44;;;-1.72;91.50
8140;BME280;4111;50.972;7.072;2023-01-29T08:07:34;102523.56;;;-1.80;92.11
8140;BME280;4111;50.972;7.072;2023-01-29T08:10:00;102530.34;;;-1.75;92.36
8140;BME280;4111;50.972;7.072;2023-01-29T08:12:26;102541.72;;;-1.73;92.50
8140;BME280;4111;50.972;7.072;2023-01-29T08:14:53;102526.72;;;-1.63;92.65
8140;BME280;4111;50.972;7.072;2023-01-29T08:17:19;102532.03;;;-1.52;92.72
8140;BME280;4111;50.972;7.072;2023-01-29T08:19:46;102527.66;;;-1.53;92.25
8140;BME280;4111;50.972;7.072;2023-01-29T08:22:12;102521.50;;;-1.53;92.84
8140;BME280;4111;50.972;7.072;2023-01-29T08:24:40;102519.28;;;-1.48;92.73
8140;BME280;4111;50.972;7.072;2023-01-29T08:27:25;102530.09;;;-1.50;92.66
8140;BME280;4111;50.972;7.072;2023-01-29T08:29:59;102537.47;;;-1.42;92.44
8140;BME280;4111;50.972;7.072;2023-01-29T08:32:26;102537.31;;;-1.41;92.55
8140;BME280;4111;50.972;7.072;2023-01-29T08:34:52;102528.88;;;-1.46;92.53
8140;BME280;4111;50.972;7.072;2023-01-29T08:37:19;102526.94;;;-1.44;92.86
8140;BME280;4111;50.972;7.072;2023-01-29T08:39:45;102541.22;;;-1.45;93.07
8140;BME280;4111;50.972;7.072;2023-01-29T08:42:12;102529.72;;;-1.45;92.63
8140;BME280;4111;50.972;7.072;2023-01-29T08:44:38;102532.25;;;-1.44;92.86
8140;BME280;4111;50.972;7.072;2023-01-29T08:47:04;102534.16;;;-1.34;93.28
8140;BME280;4111;50.972;7.072;2023-01-29T08:49:31;102525.19;;;-1.22;93.42
8140;BME280;4111;50.972;7.072;2023-01-29T08:51:57;102517.03;;;-1.21;93.22
8140;BME280;4111;50.972;7.072;2023-01-29T08:54:24;102526.75;;;-1.20;92.92
8140;BME280;4111;50.972;7.072;2023-01-29T08:56:50;102529.81;;;-1.24;92.53
8140;BME280;4111;50.972;7.072;2023-01-29T08:59:17;102517.19;;;-1.22;92.94
8140;BME280;4111;50.972;7.072;2023-01-29T09:01:44;102522.53;;;-1.22;92.91
8140;BME280;4111;50.972;7.072;2023-01-29T09:04:10;102520.81;;;-1.12;92.81
8140;BME280;4111;50.972;7.072;2023-01-29T09:06:37;102526.25;;;-1.13;92.90
8140;BME280;4111;50.972;7.072;2023-01-29T09:09:03;102526.59;;;-1.07;92.52
8140;BME280;4111;50.972;7.072;2023-01-29T09:11:30;102523.59;;;-1.13;92.67
8140;BME280;4111;50.972;7.072;2023-01-29T09:13:56;102526.59;;;-1.07;92.69
8140;BME280;4111;50.972;7.072;2023-01-29T09:16:22;102521.25;;;-1.07;92.29
8140;BME280;4111;50.972;7.072;2023-01-29T09:18:49;102517.13;;;-1.00;92.66
8140;BME280;4111;50.972;7.072;2023-01-29T09:21:15;102521.72;;;-1.02;91.90
8140;BME280;4111;50.972;7.072;2023-01-29T09:23:42;102515.16;;;-0.97;92.07
8140;BME280;4111;50.972;7.072;2023-01-29T09:26:08;102507.44;;;-1.01;92.06
8140;BME280;4111;50.972;7.072;2023-01-29T09:28:35;102504.06;;;-1.03;92.50
8140;BME280;4111;50.972;7.072;2023-01-29T09:31:01;102496.78;;;-1.01;92.37
8140;BME280;4111;50.972;7.072;2023-01-29T09:33:28;102500.59;;;-0.93;92.41
8140;BME280;4111;50.972;7.072;2023-01-29T09:35:56;102493.31;;;-0.91;92.24
8140;BME280;4111;50.972;7.072;2023-01-29T09:38:22;102492.81;;;-0.85;92.67
8140;BME280;4111;50.972;7.072;2023-01-29T09:40:54;102480.41;;;-0.75;92.36
8140;BME280;4111;50.972;7.072;2023-01-29T09:43:50;102494.78;;;-0.66;91.89
8140;BME280;4111;50.972;7.072;2023-01-29T09:46:32;102489.13;;;-0.73;92.39
8140;BME280;4111;50.972;7.072;2023-01-29T09:49:06;102488.50;;;-0.65;91.73
8140;BME280;4111;50.972;7.072;2023-01-29T09:51:40;102481.97;;;-0.51;91.79
8140;BME280;4111;50.972;7.072;2023-01-29T09:54:33;102486.63;;;-0.44;91.95
8140;BME280;4111;50.972;7.072;2023-01-29T09:57:01;102475.06;;;-0.33;91.49
8140;BME280;4111;50.972;7.072;2023-01-29T09:59:29;102469.13;;;-0.36;91.22
8140;BME280;4111;50.972;7.072;2023-01-29T10:02:08;102468.66;;;-0.21;91.52
8140;BME280;4111;50.972;7.072;2023-01-29T10:13:02;102457.94;;;0.01;91.00
8140;BME280;4111;50.972;7.072;2023-01-29T10:15:41;102453.19;;;0.04;90.71
8140;BME280;4111;50.972;7.072;2023-01-29T10:23:52;102450.22;;;0.07;89.78
8140;BME280;4111;50.972;7.072;2023-01-29T10:26:23;102448.25;;;0.09;89.82
8140;BME280;4111;50.972;7.072;2023-01-29T10:28:53;102458.13;;;0.18;89.73
8140;BME280;4111;50.972;7.072;2023-01-29T10:31:32;102447.44;;;0.18;89.58
8140;BME280;4111;50.972;7.072;2023-01-29T10:34:29;102453.13;;;0.35;89.43
8140;BME280;4111;50.972;7.072;2023-01-29T10:36:58;102450.34;;;0.46;89.43
8140;BME280;4111;50.972;7.072;2023-01-29T10:39:25;102448.63;;;0.45;89.15
8140;BME280;4111;50.972;7.072;2023-01-29T10:50:13;102442.75;;;0.81;88.62
8140;BME280;4111;50.972;7.072;2023-01-29T10:58:24;102427.69;;;0.50;87.69
8140;BME280;4111;50.972;7.072;2023-01-29T11:00:55;102426.44;;;0.54;88.11
8140;BME280;4111;50.972;7.072;2023-01-29T11:03:23;102417.69;;;0.52;87.15
8140;BME280;4111;50.972;7.072;2023-01-29T11:06:11;102416.28;;;0.48;87.58
8140;BME280;4111;50.972;7.072;2023-01-29T11:09:07;102404.47;;;0.61;88.03
8140;BME280;4111;50.972;7.072;2023-01-29T11:12:18;102398.88;;;0.64;87.77
8140;BME280;4111;50.972;7.072;2023-01-29T11:15:15;102384.22;;;0.68;87.80
8140;BME280;4111;50.972;7.072;2023-01-29T11:18:02;102382.97;;;0.72;87.14
8140;BME280;4111;50.972;7.072;2023-01-29T11:20:30;102383.94;;;0.71;87.33
8140;BME280;4111;50.972;7.072;2023-01-29T11:22:57;102381.41;;;0.79;87.01
8140;BME280;4111;50.972;7.072;2023-01-29T11:25:25;102379.16;;;0.84;86.54
8140;BME280;4111;50.972;7.072;2023-01-29T11:27:56;102374.94;;;0.82;86.87
8140;BME280;4111;50.972;7.072;2023-01-29T11:30:34;102372.13;;;0.73;86.49
8140;BME280;4111;50.972;7.072;2023-01-29T11:33:18;102372.97;;;0.74;86.20
8140;BME280;4111;50.972;7.072;2023-01-29T11:35:45;102371.97;;;0.75;86.40
8140;BME280;4111;50.972;7.072;2023-01-29T11:38:17;102365.78;;;0.84;86.06
8140;BME280;4111;50.972;7.072;2023-01-29T11:40:44;102360.72;;;0.81;86.23
8140;BME280;4111;50.972;7.072;2023-01-29T11:43:28;102350.44;;;0.86;86.21
8140;BME280;4111;50.972;7.072;2023-01-29T11:46:03;102354.09;;;0.85;86.25
8140;BME280;4111;50.972;7.072;2023-01-29T11:48:42;102351.25;;;0.96;85.76
8140;BME280;4111;50.972;7.072;2023-01-29T11:51:11;102354.47;;;1.10;86.00
8140;BME280;4111;50.972;7.072;2023-01-29T11:53:51;102341.34;;;1.16;85.55
8140;BME280;4111;50.972;7.072;2023-01-29T11:56:29;102331.91;;;1.22;85.20
8140;BME280;4111;50.972;7.072;2023-01-29T11:58:58;102336.97;;;1.25;85.04
8140;BME280;4111;50.972;7.072;2023-01-29T12:01:37;102319.91;;;1.26;85.18
8140;BME280;4111;50.972;7.072;2023-01-29T12:04:21;102331.50;;;1.27;84.84
8140;BME280;4111;50.972;7.072;2023-01-29T12:06:51;102322.13;;;1.41;85.16
8140;BME280;4111;50.972;7.072;2023-01-29T12:09:20;102318.72;;;1.48;84.70
8140;BME280;4111;50.972;7.072;2023-01-29T12:11:48;102308.84;;;1.49;84.07
8140;BME280;4111;50.972;7.072;2023-01-29T12:14:31;102310.94;;;1.55;84.26
8140;BME280;4111;50.972;7.072;2023-01-29T12:17:12;102305.13;;;1.59;83.49
8140;BME280;4111;50.972;7.072;2023-01-29T12:19:54;102295.16;;;1.52;83.23
8140;BME280;4111;50.972;7.072;2023-01-29T12:22:47;102294.09;;;1.45;83.48
8140;BME280;4111;50.972;7.072;2023-01-29T12:25:33;102280.06;;;1.33;82.67
8140;BME280;4111;50.972;7.072;2023-01-29T12:30:43;102279.31;;;1.41;82.61
8140;BME280;4111;50.972;7.072;2023-01-29T12:33:25;102260.56;;;1.41;82.35
8140;BME280;4111;50.972;7.072;2023-01-29T12:36:08;102258.97;;;1.48;82.29
8140;BME280;4111;50.972;7.072;2023-01-29T12:38:36;102240.63;;;1.53;82.09
8140;BME280;4111;50.972;7.072;2023-01-29T12:41:17;102237.19;;;1.43;81.55
8140;BME280;4111;50.972;7.072;2023-01-29T12:43:52;102227.06;;;1.36;81.71
8140;BME280;4111;50.972;7.072;2023-01-29T12:46:33;102212.50;;;1.49;82.21
8140;BME280;4111;50.972;7.072;2023-01-29T12:49:09;102199.47;;;1.54;81.82
8140;BME280;4111;50.972;7.072;2023-01-29T12:51:45;102198.97;;;1.68;82.29
8140;BME280;4111;50.972;7.072;2023-01-29T12:54:18;102188.00;;;1.62;81.78
8140;BME280;4111;50.972;7.072;2023-01-29T12:56:51;102184.03;;;1.66;81.78
8140;BME280;4111;50.972;7.072;2023-01-29T12:59:29;102191.00;;;1.76;81.63
8140;BME280;4111;50.972;7.072;2023-01-29T13:02:14;102184.03;;;1.84;81.50
8140;BME280;4111;50.972;7.072;2023-01-29T13:05:08;102184.56;;;1.87;81.62
8140;BME280;4111;50.972;7.072;2023-01-29T13:07:45;102174.47;;;1.81;81.22
8140;BME280;4111;50.972;7.072;2023-01-29T13:10:15;102169.81;;;1.83;80.99
8140;BME280;4111;50.972;7.072;2023-01-29T13:12:52;102169.13;;;1.81;81.09
8140;BME280;4111;50.972;7.072;2023-01-29T13:15:29;102161.47;;;1.86;80.69
8140;BME280;4111;50.972;7.072;2023-01-29T13:18:06;102162.97;;;2.07;81.31
8140;BME280;4111;50.972;7.072;2023-01-29T13:20:39;102158.75;;;2.22;81.01
8140;BME280;4111;50.972;7.072;2023-01-29T13:23:21;102165.47;;;2.26;80.41
8140;BME280;4111;50.972;7.072;2023-01-29T13:25:53;102156.94;;;2.31;80.10
8140;BME280;4111;50.972;7.072;2023-01-29T13:28:22;102149.03;;;2.47;80.15
8140;BME280;4111;50.972;7.072;2023-01-29T13:31:10;102145.06;;;2.60;79.67
8140;BME280;4111;50.972;7.072;2023-01-29T13:33:37;102130.03;;;2.67;79.26
8140;BME280;4111;50.972;7.072;2023-01-29T13:36:13;102132.41;;;2.78;78.72
8140;BME280;4111;50.972;7.072;2023-01-29T13:38:42;102132.06;;;2.73;78.35
8140;BME280;4111;50.972;7.072;2023-01-29T13:41:10;102128.13;;;2.93;79.62
8140;BME280;4111;50.972;7.072;2023-01-29T13:43:40;102121.78;;;2.94;79.12
8140;BME280;4111;50.972;7.072;2023-01-29T13:46:11;102127.56;;;3.16;78.68
8140;BME280;4111;50.972;7.072;2023-01-29T13:48:45;102118.31;;;3.10;78.18
8140;BME280;4111;50.972;7.072;2023-01-29T13:51:16;102114.03;;;2.91;77.87
8140;BME280;4111;50.972;7.072;2023-01-29T13:53:59;102119.72;;;2.88;77.95
8140;BME280;4111;50.972;7.072;2023-01-29T13:59:04;102120.13;;;3.10;77.87
8140;BME280;4111;50.972;7.072;2023-01-29T14:06:51;102107.16;;;3.56;76.63
8140;BME280;4111;50.972;7.072;2023-01-29T14:12:30;102119.19;;;3.27;76.31
8140;BME280;4111;50.972;7.072;2023-01-29T14:15:01;102113.81;;;3.27;77.01
8140;BME280;4111;50.972;7.072;2023-01-29T14:17:32;102116.47;;;3.19;76.53
8140;BME280;4111;50.972;7.072;2023-01-29T14:20:15;102120.50;;;3.15;77.19
8140;BME280;4111;50.972;7.072;2023-01-29T14:22:43;102118.16;;;3.20;76.97
8140;BME280;4111;50.972;7.072;2023-01-29T14:25:15;102115.44;;;3.12;77.04
8140;BME280;4111;50.972;7.072;2023-01-29T14:27:47;102111.09;;;3.19;77.40
8140;BME280;4111;50.972;7.072;2023-01-29T14:30:17;102116.97;;;3.06;77.12
8140;BME280;4111;50.972;7.072;2023-01-29T14:32:48;102102.66;;;2.97;76.81
8140;BME280;4111;50.972;7.072;2023-01-29T14:35:19;102105.63;;;2.86;77.15
8140;BME280;4111;50.972;7.072;2023-01-29T14:37:49;102105.19;;;2.99;77.76
8140;BME280;4111;50.972;7.072;2023-01-29T14:43:00;102102.81;;;2.96;77.30
8140;BME280;4111;50.972;7.072;2023-01-29T14:45:32;102098.97;;;2.98;77.58
8140;BME280;4111;50.972;7.072;2023-01-29T14:58:46;102098.63;;;3.02;77.78
8140;BME280;4111;50.972;7.072;2023-01-29T15:01:31;102103.69;;;3.05;77.74
8140;BME280;4111;50.972;7.072;2023-01-29T15:04:55;102099.16;;;3.05;77.75
8140;BME280;4111;50.972;7.072;2023-01-29T15:09:44;102099.31;;;3.04;77.56
8140;BME280;4111;50.972;7.072;2023-01-29T15:14:51;102099.13;;;2.97;77.82
8140;BME280;4111;50.972;7.072;2023-01-29T15:17:27;102094.75;;;2.96;77.83
8140;BME280;4111;50.972;7.072;2023-01-29T15:19:55;102099.28;;;2.95;77.87
8140;BME280;4111;50.972;7.072;2023-01-29T15:22:24;102100.66;;;3.00;78.04
8140;BME280;4111;50.972;7.072;2023-01-29T15:25:08;102102.00;;;3.12;78.06